Pomeroy, Iowa
Current Conditions -  °F | °C
As of 3:15 PM on Friday 24 Oct 2014 (Local Time) from KFOD Reporting Station
Clear Clear  
Wind Chill: 70°   Ceiling: Unl
Heat Index: 70°   Visibility: 10mi
Dew Point: 57°   Wind: 7mph
Humidity: 64%   Direction: 260°W
Pressure: 29.88"   Gusts: NA
Location:  42.55°N, 94.68°W
Report Text: KFOD 242015Z AUTO 26006KT 10SM CLR 21/14 A2988 RMK AO1
Loading
Personal Weather Stations






























Interactive Weather Map
Tropical Storm Tracking
New forecast layout! Learn more

10-Day Weather Forecast

Advertisements
Track Severe Weather on mobile